createdAt,value
2018-05-16T00:01:20.289Z,17.60
2018-05-16T00:03:46.513Z,16.30
2018-05-16T00:06:13.110Z,18.13
2018-05-16T00:08:40.312Z,18.30
2018-05-16T00:11:06.902Z,15.57
2018-05-16T00:13:33.116Z,15.65
2018-05-16T00:15:59.347Z,16.93
2018-05-16T00:18:26.605Z,18.48
2018-05-16T00:20:55.331Z,18.40
2018-05-16T00:23:21.595Z,19.67
2018-05-16T00:25:52.930Z,19.40
2018-05-16T00:28:19.506Z,16.60
2018-05-16T00:30:45.713Z,18.48
2018-05-16T00:33:11.935Z,16.95
2018-05-16T00:35:38.163Z,17.50
2018-05-16T00:38:04.412Z,17.20
2018-05-16T00:40:30.642Z,16.87
2018-05-16T00:42:56.840Z,18.85
2018-05-16T00:45:23.056Z,19.05
2018-05-16T00:47:49.290Z,16.40
2018-05-16T00:50:15.524Z,19.12
2018-05-16T00:52:41.749Z,16.58
2018-05-16T00:55:08.005Z,19.20
2018-05-16T00:57:34.248Z,17.70
2018-05-16T01:00:00.459Z,16.55
2018-05-16T01:02:33.557Z,17.37
2018-05-16T01:04:59.761Z,17.75
2018-05-16T01:07:26.515Z,15.55
2018-05-16T01:09:52.757Z,16.35
2018-05-16T01:12:18.978Z,16.58
2018-05-16T01:14:45.211Z,18.10
2018-05-16T01:17:11.448Z,17.52
2018-05-16T01:19:37.741Z,17.87
2018-05-16T01:22:03.979Z,17.15
2018-05-16T01:24:30.195Z,16.95
2018-05-16T01:26:56.404Z,17.83
2018-05-16T01:29:23.003Z,18.62
2018-05-16T01:31:49.245Z,16.77
2018-05-16T01:34:15.457Z,17.48
2018-05-16T01:36:41.687Z,16.83
2018-05-16T01:39:07.924Z,23.10
2018-05-16T01:41:34.125Z,22.27
2018-05-16T01:44:00.336Z,22.52
2018-05-16T01:46:26.575Z,21.12
2018-05-16T01:49:05.161Z,22.45
2018-05-16T01:51:31.754Z,20.37
2018-05-16T01:53:57.975Z,22.27
2018-05-16T01:56:24.185Z,22.33
2018-05-16T01:58:50.410Z,19.48
2018-05-16T02:01:16.603Z,19.25
2018-05-16T02:03:42.831Z,19.00
2018-05-16T02:06:09.066Z,21.05
2018-05-16T02:08:35.657Z,19.58
2018-05-16T02:11:01.891Z,19.30
2018-05-16T02:13:28.125Z,17.45
2018-05-16T02:15:54.374Z,20.20
2018-05-16T02:18:20.579Z,20.10
2018-05-16T02:20:46.830Z,19.65
2018-05-16T02:23:13.411Z,20.08
2018-05-16T02:25:39.625Z,21.40
2018-05-16T02:28:05.863Z,18.20
2018-05-16T02:30:32.075Z,20.52
2018-05-16T02:32:59.824Z,22.85
2018-05-16T02:35:26.059Z,22.13
2018-05-16T02:37:52.265Z,21.95
2018-05-16T02:40:18.847Z,24.50
2018-05-16T02:42:45.076Z,24.17
2018-05-16T02:45:11.331Z,25.98
2018-05-16T02:47:37.580Z,28.17
2018-05-16T02:50:03.771Z,29.12
2018-05-16T02:52:29.988Z,30.35
2018-05-16T02:54:56.174Z,26.52
2018-05-16T02:57:22.755Z,26.45
2018-05-16T02:59:48.960Z,25.90
2018-05-16T03:02:15.177Z,29.87
2018-05-16T03:04:41.413Z,30.90
2018-05-16T03:07:07.628Z,34.38
2018-05-16T03:09:34.243Z,34.88
2018-05-16T03:12:00.484Z,34.75
2018-05-16T03:14:27.227Z,34.72
2018-05-16T03:16:53.859Z,36.17
2018-05-16T03:19:20.463Z,36.22
2018-05-16T03:21:46.668Z,39.88
2018-05-16T03:24:12.887Z,39.42
2018-05-16T03:26:39.128Z,39.28
2018-05-16T03:29:05.376Z,34.47
2018-05-16T03:31:31.605Z,34.15
2018-05-16T03:33:57.808Z,34.05
2018-05-16T03:36:24.008Z,27.65
2018-05-16T03:38:50.248Z,27.52
2018-05-16T03:41:16.444Z,29.37
2018-05-16T03:43:42.661Z,29.17
2018-05-16T03:46:08.883Z,34.33
2018-05-16T03:48:35.149Z,43.22
2018-05-16T03:51:01.724Z,38.88
2018-05-16T03:53:27.974Z,72.03
2018-05-16T03:55:54.198Z,92.12
2018-05-16T03:58:32.531Z,101.65
2018-05-16T04:01:10.916Z,102.25
2018-05-16T04:03:49.353Z,75.28
2018-05-16T04:06:15.606Z,76.35
2018-05-16T04:08:42.221Z,74.30
2018-05-16T04:11:08.512Z,67.68
2018-05-16T04:13:34.839Z,55.35
2018-05-16T04:16:01.074Z,42.42
2018-05-16T04:18:27.365Z,27.87
2018-05-16T04:20:53.598Z,26.20
2018-05-16T04:23:19.805Z,27.42
2018-05-16T04:25:46.032Z,25.08
2018-05-16T04:28:12.778Z,28.10
2018-05-16T04:30:39.346Z,26.95
2018-05-16T04:33:05.578Z,23.65
2018-05-16T04:35:31.911Z,23.45
2018-05-16T04:37:58.048Z,21.95
2018-05-16T04:40:24.301Z,21.77
2018-05-16T04:42:50.648Z,21.20
2018-05-16T04:45:17.147Z,22.17
2018-05-16T04:47:43.390Z,21.02
2018-05-16T04:50:09.646Z,21.62
2018-05-16T04:52:36.224Z,21.45
2018-05-16T04:55:02.470Z,20.30
2018-05-16T04:57:28.677Z,19.62
2018-05-16T04:59:54.936Z,20.20
2018-05-16T05:02:21.165Z,19.00
2018-05-16T05:04:47.388Z,19.50
2018-05-16T05:07:13.628Z,20.83
2018-05-16T05:09:39.851Z,19.40
2018-05-16T05:12:06.082Z,19.20
2018-05-16T05:14:32.652Z,19.30
2018-05-16T05:16:58.885Z,18.67
2018-05-16T05:19:25.142Z,17.98
2018-05-16T05:21:51.348Z,19.95
2018-05-16T05:24:24.411Z,21.10
2018-05-16T05:26:51.031Z,21.58
2018-05-16T05:29:17.237Z,21.02
2018-05-16T05:31:43.467Z,23.33
2018-05-16T05:34:09.722Z,25.95
2018-05-16T05:36:35.971Z,22.15
2018-05-16T05:39:02.624Z,28.30
2018-05-16T05:41:28.843Z,27.62
2018-05-16T05:43:55.524Z,25.12
2018-05-16T05:46:22.145Z,25.73
2018-05-16T05:48:48.388Z,25.45
2018-05-16T05:51:14.608Z,24.40
2018-05-16T05:53:40.858Z,24.83
2018-05-16T05:56:07.075Z,22.83
2018-05-16T05:58:33.320Z,27.42
2018-05-16T06:00:59.553Z,23.67
2018-05-16T06:03:25.781Z,25.65
2018-05-16T06:05:51.998Z,25.20
2018-05-16T06:08:18.316Z,23.27
2018-05-16T06:10:45.247Z,21.55
2018-05-16T06:13:11.509Z,24.30
2018-05-16T06:15:37.766Z,23.33
2018-05-16T06:18:04.418Z,22.73
2018-05-16T06:20:30.705Z,21.90
2018-05-16T06:22:58.092Z,20.67
2018-05-16T06:25:24.751Z,21.25
2018-05-16T06:27:50.954Z,21.45
2018-05-16T06:30:18.221Z,23.15
2018-05-16T06:32:44.505Z,21.92
2018-05-16T06:35:10.696Z,20.92
2018-05-16T06:37:36.975Z,19.70
2018-05-16T06:40:03.217Z,20.67
2018-05-16T06:42:29.794Z,20.88
2018-05-16T06:44:56.052Z,20.90
2018-05-16T06:47:22.273Z,20.85
2018-05-16T06:49:49.266Z,21.25
2018-05-16T06:52:19.296Z,22.77
2018-05-16T06:54:45.526Z,23.42
2018-05-16T06:57:11.807Z,26.02
2018-05-16T06:59:38.069Z,27.35
2018-05-16T07:02:04.331Z,27.40
2018-05-16T07:04:30.526Z,30.88
2018-05-16T07:06:56.800Z,26.23
2018-05-16T07:09:23.568Z,26.83
2018-05-16T07:11:49.824Z,24.95
2018-05-16T07:14:16.954Z,23.65
2018-05-16T07:16:43.191Z,21.23
2018-05-16T07:19:09.809Z,18.98
2018-05-16T07:21:36.063Z,19.80
2018-05-16T07:24:02.690Z,18.67
2018-05-16T07:26:30.095Z,19.10
2018-05-16T07:28:56.355Z,18.40
2018-05-16T07:31:22.581Z,16.50
2018-05-16T07:33:48.829Z,18.10
2018-05-16T07:36:15.474Z,17.83
2018-05-16T07:38:42.091Z,18.48
2018-05-16T07:41:08.328Z,19.58
2018-05-16T07:43:34.952Z,18.12
2018-05-16T07:46:01.206Z,17.75
2018-05-16T07:48:28.748Z,20.55
2018-05-16T07:50:55.906Z,18.55
2018-05-16T07:53:22.640Z,20.83
2018-05-16T07:55:49.263Z,26.80
2018-05-16T07:58:15.516Z,29.83
2018-05-16T08:00:41.759Z,28.00
2018-05-16T08:03:07.994Z,23.45
2018-05-16T08:05:34.263Z,17.25
2018-05-16T08:08:00.482Z,14.57
2018-05-16T08:10:26.721Z,12.77
2018-05-16T08:12:53.808Z,13.10
2018-05-16T08:15:20.424Z,10.65
2018-05-16T08:17:46.724Z,10.32
2018-05-16T08:20:13.032Z,8.13
2018-05-16T08:22:39.285Z,7.27
2018-05-16T08:25:05.524Z,6.20
2018-05-16T08:27:31.756Z,6.40
2018-05-16T08:29:58.007Z,6.77
2018-05-16T08:32:26.005Z,5.90
2018-05-16T08:39:11.990Z,5.57
2018-05-16T08:41:38.248Z,6.45
2018-05-16T08:44:04.471Z,6.12
2018-05-16T08:46:31.105Z,5.33
2018-05-16T08:48:57.350Z,4.97
2018-05-16T08:51:23.583Z,5.13
2018-05-16T08:53:50.633Z,6.90
2018-05-16T08:56:16.861Z,6.55
2018-05-16T08:58:43.099Z,6.18
2018-05-16T09:01:09.379Z,6.67
2018-05-16T09:03:35.592Z,6.63
2018-05-16T09:06:01.804Z,6.17
2018-05-16T09:08:28.062Z,5.70
2018-05-16T09:10:54.291Z,5.80
2018-05-16T09:13:21.281Z,6.10
2018-05-16T09:15:47.533Z,5.57
2018-05-16T09:18:14.414Z,5.50
2018-05-16T09:20:40.626Z,5.53
2018-05-16T09:23:06.856Z,5.77
2018-05-16T09:25:33.057Z,5.90
2018-05-16T09:28:00.293Z,6.60
2018-05-16T09:30:26.545Z,6.17
2018-05-16T09:32:53.421Z,7.07
2018-05-16T09:35:19.642Z,6.87
2018-05-16T09:37:46.522Z,7.00
2018-05-16T09:40:12.764Z,6.63
2018-05-16T09:42:39.011Z,6.28
2018-05-16T09:45:05.276Z,6.50
2018-05-16T09:47:31.891Z,6.93
2018-05-16T09:49:58.122Z,6.60
2018-05-16T09:52:25.101Z,6.07
2018-05-16T09:54:52.155Z,6.27
2018-05-16T09:57:18.396Z,8.40
2018-05-16T09:59:44.702Z,7.53
2018-05-16T10:02:10.977Z,8.20
2018-05-16T10:04:37.197Z,7.90
2018-05-16T10:07:04.409Z,7.70
2018-05-16T10:09:31.675Z,7.73
2018-05-16T10:11:57.949Z,8.90
2018-05-16T10:14:24.260Z,9.07
2018-05-16T10:16:50.531Z,8.38
2018-05-16T10:19:17.378Z,9.10
2018-05-16T10:21:46.045Z,9.80
2018-05-16T10:24:12.681Z,9.47
2018-05-16T10:26:40.950Z,9.03
2018-05-16T10:29:07.811Z,8.63
2018-05-16T10:31:34.054Z,8.60
2018-05-16T10:34:01.604Z,9.83
2018-05-16T10:36:35.346Z,9.83
2018-05-16T10:39:02.361Z,9.47
2018-05-16T10:41:31.414Z,9.10
2018-05-16T10:44:02.244Z,10.13
2018-05-16T10:46:28.450Z,9.83
2018-05-16T10:48:55.676Z,9.83
2018-05-16T10:51:25.301Z,8.60
2018-05-16T10:53:58.527Z,9.97
2018-05-16T10:56:26.290Z,9.30
2018-05-16T10:58:53.048Z,8.53
2018-05-16T11:01:19.863Z,8.20
2018-05-16T11:03:47.631Z,9.07
2018-05-16T11:06:13.908Z,8.20
2018-05-16T11:08:43.059Z,8.20
2018-05-16T11:11:09.305Z,9.23
2018-05-16T11:13:35.542Z,7.93
2018-05-16T11:16:01.806Z,8.97
2018-05-16T11:18:28.071Z,8.27
2018-05-16T11:20:54.303Z,9.50
2018-05-16T11:23:20.538Z,8.25
2018-05-16T11:25:46.795Z,9.00
2018-05-16T11:28:13.011Z,9.23
2018-05-16T11:30:39.268Z,10.00
2018-05-16T11:33:05.535Z,8.40
2018-05-16T11:35:31.821Z,9.70
2018-05-16T11:37:58.436Z,9.80
2018-05-16T11:40:24.699Z,8.97
2018-05-16T11:42:51.294Z,9.43
2018-05-16T11:45:18.475Z,9.50
2018-05-16T11:47:45.160Z,9.30
2018-05-16T11:50:11.417Z,8.13
2018-05-16T11:52:37.676Z,8.93
2018-05-16T11:55:04.296Z,9.43
2018-05-16T11:57:30.549Z,9.60
2018-05-16T11:59:57.116Z,9.20
2018-05-16T12:02:23.411Z,9.70
2018-05-16T12:04:49.650Z,10.90
2018-05-16T12:07:15.878Z,10.60
2018-05-16T12:09:42.175Z,10.20
2018-05-16T12:12:08.425Z,10.13
2018-05-16T12:14:34.676Z,10.73
2018-05-16T12:17:00.987Z,10.43
2018-05-16T12:19:27.257Z,10.20
2018-05-16T12:21:53.522Z,10.77
2018-05-16T12:24:19.771Z,10.00
2018-05-16T12:26:46.043Z,11.17
2018-05-16T12:29:12.303Z,11.10
2018-05-16T12:31:38.560Z,9.80
2018-05-16T12:34:05.295Z,12.07
2018-05-16T12:36:31.572Z,10.10
2018-05-16T12:38:57.818Z,9.63
2018-05-16T12:41:24.053Z,10.57
2018-05-16T12:43:50.330Z,11.37
2018-05-16T12:46:16.613Z,9.70
2018-05-16T12:48:42.848Z,11.13
2018-05-16T12:51:09.067Z,9.73
2018-05-16T12:53:35.352Z,8.33
2018-05-16T12:56:01.577Z,10.27
2018-05-16T12:58:28.320Z,10.00
2018-05-16T13:00:54.577Z,9.20
2018-05-16T13:03:20.905Z,8.47
2018-05-16T13:05:48.089Z,8.70
2018-05-16T13:08:14.344Z,8.03
2018-05-16T13:10:44.359Z,7.67
2018-05-16T13:13:10.569Z,7.50
2018-05-16T13:15:37.205Z,7.80
2018-05-16T13:18:04.063Z,9.40
2018-05-16T13:20:30.247Z,9.47
2018-05-16T13:22:56.581Z,9.77
2018-05-16T13:25:22.833Z,8.97
2018-05-16T13:27:49.455Z,9.10
2018-05-16T13:30:15.696Z,7.73
2018-05-16T13:32:41.936Z,7.27
2018-05-16T13:35:08.179Z,6.70
2018-05-16T13:37:34.470Z,8.40
2018-05-16T13:40:00.760Z,7.10
2018-05-16T13:42:27.040Z,7.27
2018-05-16T13:44:53.294Z,7.00
2018-05-16T13:47:19.552Z,7.60
2018-05-16T13:49:45.827Z,7.57
2018-05-16T13:52:12.514Z,7.77
2018-05-16T13:54:38.791Z,5.50
2018-05-16T13:57:05.079Z,5.40
2018-05-16T13:59:38.378Z,6.60
2018-05-16T14:02:06.150Z,7.60
2018-05-16T14:04:32.395Z,5.23
2018-05-16T14:06:58.630Z,3.77
2018-05-16T14:09:24.875Z,4.20
2018-05-16T14:11:51.126Z,4.40
2018-05-16T14:14:17.366Z,4.27
2018-05-16T14:16:43.617Z,4.70
2018-05-16T14:19:09.879Z,5.00
2018-05-16T14:21:36.127Z,4.40
2018-05-16T14:24:02.386Z,4.30
2018-05-16T14:26:28.601Z,5.00
2018-05-16T14:28:54.910Z,4.73
2018-05-16T14:31:21.148Z,5.37
2018-05-16T14:33:49.572Z,5.53
2018-05-16T14:36:21.115Z,5.50
2018-05-16T14:38:47.330Z,4.70
2018-05-16T14:41:13.616Z,4.07
2018-05-16T14:43:40.207Z,4.20
2018-05-16T14:46:06.433Z,4.63
2018-05-16T14:48:32.778Z,3.70
2018-05-16T14:50:58.980Z,3.87
2018-05-16T14:53:25.201Z,5.03
2018-05-16T14:55:51.504Z,4.57
2018-05-16T14:58:17.790Z,4.40
2018-05-16T15:00:44.033Z,4.87
2018-05-16T15:03:10.281Z,5.43
2018-05-16T15:05:36.916Z,5.30
2018-05-16T15:08:03.543Z,5.00
2018-05-16T15:10:29.806Z,5.70
2018-05-16T15:12:56.084Z,6.67
2018-05-16T15:15:22.412Z,7.53
2018-05-16T15:17:48.693Z,7.37
2018-05-16T15:22:59.197Z,8.90
2018-05-16T15:25:25.420Z,9.17
2018-05-16T15:27:51.661Z,6.30
2018-05-16T15:30:17.910Z,6.63
2018-05-16T15:32:44.217Z,4.23
2018-05-16T15:35:10.584Z,6.30
2018-05-16T15:37:37.247Z,3.53
2018-05-16T15:40:03.517Z,3.07
2018-05-16T15:42:29.748Z,3.97
2018-05-16T15:44:56.006Z,2.97
2018-05-16T15:47:23.495Z,2.80
2018-05-16T15:49:50.108Z,2.90
2018-05-16T15:52:16.379Z,2.90
2018-05-16T15:54:42.612Z,3.50
2018-05-16T15:57:08.881Z,3.43
2018-05-16T15:59:35.179Z,3.70
2018-05-16T16:02:01.468Z,3.40
2018-05-16T16:04:28.061Z,4.27
2018-05-16T16:06:54.311Z,4.77
2018-05-16T16:09:20.551Z,4.47
2018-05-16T16:11:46.789Z,4.70
2018-05-16T16:14:13.035Z,4.50
2018-05-16T16:16:39.307Z,4.10
2018-05-16T16:19:05.577Z,5.23
2018-05-16T16:21:32.216Z,5.90
2018-05-16T16:23:58.456Z,9.90
2018-05-16T16:26:25.683Z,6.80
2018-05-16T16:28:52.298Z,5.87
2018-05-16T16:31:18.670Z,6.60
2018-05-16T16:33:44.858Z,6.23
2018-05-16T16:36:11.083Z,6.20
2018-05-16T16:38:37.314Z,6.27
2018-05-16T16:41:03.620Z,5.93
2018-05-16T16:43:29.901Z,6.70
2018-05-16T16:45:56.140Z,7.00
2018-05-16T16:48:22.394Z,7.80
2018-05-16T16:50:48.664Z,7.47
2018-05-16T16:53:15.437Z,7.10
2018-05-16T16:55:42.693Z,8.00
2018-05-16T16:58:08.936Z,9.10
2018-05-16T17:00:35.180Z,8.63
2018-05-16T17:03:01.425Z,7.80
2018-05-16T17:05:27.687Z,8.07
2018-05-16T17:07:54.960Z,7.50
2018-05-16T17:10:21.571Z,7.50
2018-05-16T17:12:48.564Z,7.80
2018-05-16T17:15:15.468Z,7.60
2018-05-16T17:17:42.091Z,17.00
2018-05-16T17:20:08.317Z,21.80
2018-05-16T17:22:34.600Z,13.53
2018-05-16T17:25:01.300Z,10.43
2018-05-16T17:27:27.915Z,7.60
2018-05-16T17:29:54.158Z,7.80
2018-05-16T17:32:20.430Z,12.80
2018-05-16T17:34:46.736Z,11.97
2018-05-16T17:37:13.328Z,8.90
2018-05-16T17:39:39.576Z,8.83
2018-05-16T17:42:05.935Z,8.50
2018-05-16T17:44:32.812Z,8.10
2018-05-16T17:46:59.083Z,8.13
2018-05-16T17:49:25.468Z,8.77
2018-05-16T17:51:51.767Z,8.23
2018-05-16T17:54:18.015Z,8.83
2018-05-16T17:56:45.241Z,10.67
2018-05-16T17:59:11.851Z,12.90
2018-05-16T18:01:38.772Z,11.30
2018-05-16T18:04:05.049Z,9.20
2018-05-16T18:06:31.421Z,8.90
2018-05-16T18:08:58.011Z,8.00
2018-05-16T18:11:24.313Z,8.40
2018-05-16T18:14:02.684Z,8.43
2018-05-16T18:16:41.785Z,8.60
2018-05-16T18:19:08.038Z,9.33
2018-05-16T18:21:34.314Z,9.60
2018-05-16T18:24:00.629Z,10.13
2018-05-16T18:26:26.925Z,11.97
2018-05-16T18:28:53.158Z,8.90
2018-05-16T18:31:19.414Z,8.47
2018-05-16T18:33:45.705Z,12.63
2018-05-16T18:36:11.936Z,9.20
2018-05-16T18:38:38.215Z,8.97
2018-05-16T18:41:05.351Z,10.70
2018-05-16T18:43:32.297Z,9.10
2018-05-16T18:45:58.581Z,10.90
2018-05-16T18:48:27.894Z,8.50
2018-05-16T18:50:54.257Z,9.37
2018-05-16T18:53:20.542Z,8.40
2018-05-16T18:55:47.236Z,8.10
2018-05-16T18:58:13.537Z,7.80
2018-05-16T19:00:39.798Z,7.10
2018-05-16T19:03:06.110Z,6.53
2018-05-16T19:05:32.458Z,7.50
2018-05-16T19:07:58.658Z,6.00
2018-05-16T19:10:24.983Z,7.17
2018-05-16T19:12:51.252Z,5.78
2018-05-16T19:15:17.532Z,5.62
2018-05-16T19:17:43.841Z,5.87
2018-05-16T19:20:10.140Z,6.23
2018-05-16T19:22:36.401Z,7.37
2018-05-16T19:25:03.079Z,7.05
2018-05-16T19:27:37.303Z,7.62
2018-05-16T19:30:08.821Z,7.78
2018-05-16T19:32:50.093Z,6.68
2018-05-16T19:35:16.406Z,6.05
2018-05-16T19:37:43.050Z,7.12
2018-05-16T19:40:10.313Z,7.75
2018-05-16T19:42:36.609Z,6.10
2018-05-16T19:45:03.724Z,6.00
2018-05-16T19:47:33.615Z,6.75
2018-05-16T19:50:01.361Z,5.68
2018-05-16T19:52:28.055Z,9.38
2018-05-16T19:54:54.377Z,6.87
2018-05-16T19:57:20.673Z,7.00
2018-05-16T19:59:47.035Z,7.87
2018-05-16T20:02:13.379Z,8.75
2018-05-16T20:04:39.705Z,9.38
2018-05-16T20:07:05.998Z,10.73
2018-05-16T20:09:32.304Z,8.88
2018-05-16T20:11:58.546Z,9.05
2018-05-16T20:14:24.933Z,10.73
2018-05-16T20:16:51.173Z,7.20
2018-05-16T20:19:17.449Z,7.37
2018-05-16T20:21:43.715Z,7.65
2018-05-16T20:24:10.891Z,8.05
2018-05-16T20:26:37.172Z,8.70
2018-05-16T20:29:03.419Z,7.47
2018-05-16T20:31:29.683Z,8.00
2018-05-16T20:33:55.961Z,8.23
2018-05-16T20:36:22.232Z,10.05
2018-05-16T20:38:48.472Z,9.93
2018-05-16T20:41:14.761Z,12.25
2018-05-16T20:43:41.002Z,10.27
2018-05-16T20:46:07.245Z,9.90
2018-05-16T20:48:34.373Z,9.30
2018-05-16T20:51:00.600Z,9.82
2018-05-16T20:53:26.839Z,8.98
2018-05-16T20:55:53.100Z,10.07
2018-05-16T20:58:19.435Z,8.57
2018-05-16T21:00:46.024Z,10.65
2018-05-16T21:03:12.272Z,10.83
2018-05-16T21:05:39.935Z,10.45
2018-05-16T21:08:10.768Z,9.18
2018-05-16T21:10:38.532Z,9.73
2018-05-16T21:13:06.241Z,13.45
2018-05-16T21:15:33.479Z,10.05
2018-05-16T21:17:59.722Z,10.88
2018-05-16T21:20:25.971Z,11.10
2018-05-16T21:23:01.120Z,12.13
2018-05-16T21:25:29.317Z,12.82
2018-05-16T21:27:56.983Z,14.25
2018-05-16T21:30:24.541Z,13.20
2018-05-16T21:32:51.413Z,13.20
2018-05-16T21:35:17.636Z,12.77
2018-05-16T21:37:43.898Z,11.38
2018-05-16T21:40:10.202Z,12.30
2018-05-16T21:42:36.456Z,15.97
2018-05-16T21:45:02.764Z,17.02
2018-05-16T21:47:29.049Z,17.63
2018-05-16T21:50:02.205Z,17.97
2018-05-16T21:52:28.438Z,16.17
2018-05-16T21:54:54.680Z,15.90
2018-05-16T21:57:20.917Z,15.85
2018-05-16T21:59:47.153Z,12.98
2018-05-16T22:02:13.395Z,12.25
2018-05-16T22:04:39.685Z,13.15
2018-05-16T22:07:05.908Z,13.87
2018-05-16T22:09:32.152Z,13.85
2018-05-16T22:11:58.395Z,13.20
2018-05-16T22:14:24.692Z,11.60
2018-05-16T22:16:50.914Z,12.13
2018-05-16T22:19:17.166Z,12.13
2018-05-16T22:21:43.423Z,13.07
2018-05-16T22:24:09.673Z,12.48
2018-05-16T22:26:35.918Z,13.25
2018-05-16T22:29:02.196Z,11.63
2018-05-16T22:31:34.456Z,11.43
2018-05-16T22:34:06.804Z,11.38
2018-05-16T22:36:39.149Z,11.15
2018-05-16T22:39:11.492Z,11.57
2018-05-16T22:41:43.798Z,11.20
2018-05-16T22:44:24.986Z,12.18
2018-05-16T22:46:51.243Z,10.35
2018-05-16T22:49:17.494Z,11.40
2018-05-16T22:52:37.172Z,14.00
2018-05-16T22:55:05.483Z,19.75
2018-05-16T22:57:32.724Z,26.35
2018-05-16T22:59:58.983Z,26.00
2018-05-16T23:02:25.228Z,25.15
2018-05-16T23:04:51.462Z,21.90
2018-05-16T23:07:17.732Z,23.15
2018-05-16T23:09:43.971Z,16.92
2018-05-16T23:12:10.197Z,15.27
2018-05-16T23:14:36.464Z,14.03
2018-05-16T23:17:02.720Z,12.25
2018-05-16T23:19:28.946Z,11.10
2018-05-16T23:21:55.203Z,10.90
2018-05-16T23:24:21.849Z,10.52
2018-05-16T23:26:48.438Z,10.63
2018-05-16T23:29:14.711Z,10.10
2018-05-16T23:31:41.334Z,10.60
2018-05-16T23:34:07.924Z,10.32
2018-05-16T23:36:35.095Z,9.93
2018-05-16T23:39:01.292Z,9.65
2018-05-16T23:41:27.542Z,9.25
2018-05-16T23:43:53.780Z,9.20
2018-05-16T23:46:20.022Z,8.30
2018-05-16T23:48:46.293Z,10.25
2018-05-16T23:51:12.531Z,9.05
2018-05-16T23:53:39.742Z,9.32
2018-05-16T23:56:06.022Z,9.10
2018-05-16T23:58:32.264Z,9.27
